Terminal Aerodrome Forecast
Issued by NWS Omaha/Valley, NE

Home | Current Version | Previous Version | Text Only | Print | Product List | Glossary On
Versions: 1 2 3 4 5 6 7 8 9 10 11 12 13 14 15 16 17
000
FTUS43 KOAX 271122 AAC
TAFOMA
TAF AMD
KOMA 271122Z 2711/2812 VRB03KT 4SM BR OVC004
      TEMPO 2712/2714 1SM -DZ OVC002
     FM271500 00000KT P6SM BKN007
     FM271600 16006KT P6SM SCT015
      TEMPO 2810/2812 5SM BR=

USA.gov is the U.S. government's official web portal to all federal, state and local government web resources and services.